Alford, Indiana
Current Conditions -  °F | °C
As of 6:15 PM on Wednesday 26 Nov 2014 (Local Time) from KDCY Reporting Station
Overcast Overcast  
Wind Chill:   Ceiling: 6000
Heat Index:   Visibility: 10mi
Dew Point:   Wind: 3mph
Humidity: 84%   Direction: 330°NNW
Pressure: 30.05"   Gusts: NA
Location:  38.4723°N, 87.3105°W
Report Text: KDCY 270015Z AUTO 33003KT 10SM OVC060 02/00 A3005 RMK AO2 T00211004
Loading
Personal Weather Stations






























Interactive Weather Map New forecast layout! Learn more

10-Day Weather Forecast

Advertisements
Track Severe Weather on mobile